createdAt,value
2022-11-14T00:02:30.378Z,8.27
2022-11-14T00:05:15.513Z,8.70
2022-11-14T00:08:00.433Z,10.27
2022-11-14T00:10:46.501Z,9.00
2022-11-14T00:13:31.556Z,9.88
2022-11-14T00:16:16.681Z,10.20
2022-11-14T00:19:01.496Z,9.55
2022-11-14T00:21:46.546Z,10.10
2022-11-14T00:24:31.500Z,9.63
2022-11-14T00:27:16.634Z,10.63
2022-11-14T00:30:01.570Z,9.25
2022-11-14T00:32:46.730Z,9.80
2022-11-14T00:35:31.673Z,11.00
2022-11-14T00:38:16.561Z,10.88
2022-11-14T00:41:01.737Z,10.63
2022-11-14T00:43:47.063Z,10.75
2022-11-14T00:46:32.006Z,9.98
2022-11-14T00:49:16.739Z,11.60
2022-11-14T00:52:01.832Z,10.45
2022-11-14T00:54:47.109Z,10.93
2022-11-14T00:57:32.187Z,11.80
2022-11-14T01:00:17.296Z,11.07
2022-11-14T01:03:02.418Z,11.75
2022-11-14T01:05:48.949Z,11.82
2022-11-14T01:08:33.912Z,12.90
2022-11-14T01:11:20.106Z,12.52
2022-11-14T01:14:08.624Z,12.93
2022-11-14T01:16:53.701Z,13.48
2022-11-14T01:19:38.628Z,13.27
2022-11-14T01:22:23.853Z,13.00
2022-11-14T01:25:08.821Z,14.60
2022-11-14T01:27:53.840Z,14.25
2022-11-14T01:30:39.324Z,14.45
2022-11-14T01:33:24.152Z,15.25
2022-11-14T01:36:09.821Z,15.38
2022-11-14T01:38:55.185Z,15.25
2022-11-14T01:41:40.088Z,17.00
2022-11-14T01:44:45.514Z,15.50
2022-11-14T01:47:32.019Z,16.02
2022-11-14T01:50:17.002Z,15.70
2022-11-14T01:53:02.095Z,15.75
2022-11-14T01:55:47.141Z,17.42
2022-11-14T01:58:34.609Z,17.02
2022-11-14T02:01:19.766Z,17.60
2022-11-14T02:04:06.631Z,16.95
2022-11-14T02:06:54.884Z,17.92
2022-11-14T02:09:40.869Z,16.25
2022-11-14T02:12:25.681Z,17.02
2022-11-14T02:15:11.619Z,17.55
2022-11-14T02:17:56.631Z,17.73
2022-11-14T02:20:43.413Z,15.68
2022-11-14T02:23:29.425Z,15.88
2022-11-14T02:26:16.984Z,17.15
2022-11-14T02:29:02.180Z,18.05
2022-11-14T02:31:47.019Z,16.52
2022-11-14T02:34:32.493Z,16.55
2022-11-14T02:37:17.360Z,15.40
2022-11-14T02:40:02.449Z,16.73
2022-11-14T02:42:47.616Z,16.55
2022-11-14T02:45:32.675Z,16.63
2022-11-14T02:48:17.565Z,17.50
2022-11-14T02:51:03.111Z,16.92
2022-11-14T02:53:48.263Z,18.48
2022-11-14T02:56:33.169Z,17.52
2022-11-14T02:59:18.092Z,16.17
2022-11-14T03:02:03.269Z,16.63
2022-11-14T03:04:48.240Z,18.10
2022-11-14T03:07:34.621Z,17.30
2022-11-14T03:10:19.967Z,17.40
2022-11-14T03:13:04.808Z,16.38
2022-11-14T03:15:49.848Z,17.83
2022-11-14T03:18:35.378Z,16.65
2022-11-14T03:21:21.369Z,17.52
2022-11-14T03:24:06.444Z,15.90
2022-11-14T03:26:51.980Z,18.15
2022-11-14T03:29:37.235Z,18.05
2022-11-14T03:32:22.204Z,19.60
2022-11-14T03:35:07.728Z,18.88
2022-11-14T03:37:56.146Z,18.98
2022-11-14T03:40:42.039Z,19.52
2022-11-14T03:43:30.180Z,18.95
2022-11-14T03:46:15.034Z,20.05
2022-11-14T03:48:59.964Z,19.40
2022-11-14T03:51:45.053Z,21.10
2022-11-14T03:54:29.861Z,20.23
2022-11-14T03:57:14.700Z,19.50
2022-11-14T04:00:00.589Z,19.80
2022-11-14T04:02:45.484Z,18.92
2022-11-14T04:05:30.559Z,19.75
2022-11-14T04:08:15.840Z,19.35
2022-11-14T04:11:01.012Z,18.92
2022-11-14T04:13:47.066Z,19.13
2022-11-14T04:16:32.129Z,18.08
2022-11-14T04:19:17.083Z,18.90
2022-11-14T04:22:02.020Z,18.08
2022-11-14T04:24:46.726Z,18.38
2022-11-14T04:27:31.783Z,18.27
2022-11-14T04:30:16.767Z,18.05
2022-11-14T04:33:01.544Z,16.67
2022-11-14T04:35:46.391Z,16.92
2022-11-14T04:38:32.607Z,17.50
2022-11-14T04:41:17.843Z,16.85
2022-11-14T04:44:02.944Z,17.48
2022-11-14T04:46:47.981Z,18.23
2022-11-14T04:49:32.867Z,16.77
2022-11-14T04:52:18.085Z,17.25
2022-11-14T04:55:03.372Z,17.45
2022-11-14T04:57:48.061Z,17.95
2022-11-14T05:00:33.201Z,16.67
2022-11-14T05:03:18.248Z,17.10
2022-11-14T05:06:03.616Z,17.15
2022-11-14T05:08:48.660Z,16.98
2022-11-14T05:11:33.904Z,17.42
2022-11-14T05:14:19.102Z,15.95
2022-11-14T05:17:03.945Z,15.63
2022-11-14T05:19:49.075Z,15.73
2022-11-14T05:22:33.990Z,17.27
2022-11-14T05:25:18.966Z,15.57
2022-11-14T05:28:04.080Z,14.82
2022-11-14T05:30:49.080Z,17.20
2022-11-14T05:33:34.612Z,15.45
2022-11-14T05:36:19.647Z,15.25
2022-11-14T05:39:04.646Z,14.40
2022-11-14T05:41:49.685Z,15.38
2022-11-14T05:44:34.545Z,16.52
2022-11-14T05:47:19.581Z,15.15
2022-11-14T05:50:04.936Z,15.73
2022-11-14T05:52:49.763Z,15.48
2022-11-14T05:55:34.727Z,14.98
2022-11-14T05:58:19.993Z,15.18
2022-11-14T06:01:05.169Z,16.23
2022-11-14T06:03:50.371Z,16.08
2022-11-14T06:06:35.442Z,15.40
2022-11-14T06:09:20.472Z,13.85
2022-11-14T06:12:07.756Z,14.30
2022-11-14T06:14:52.884Z,15.00
2022-11-14T06:17:37.946Z,14.40
2022-11-14T06:20:23.099Z,14.40
2022-11-14T06:23:08.031Z,13.18
2022-11-14T06:25:57.539Z,15.48
2022-11-14T06:28:42.581Z,13.85
2022-11-14T06:31:28.565Z,15.10
2022-11-14T06:34:13.776Z,15.43
2022-11-14T06:36:58.864Z,14.80
2022-11-14T06:39:43.876Z,15.25
2022-11-14T06:42:28.888Z,14.68
2022-11-14T06:45:14.194Z,13.93
2022-11-14T06:47:59.957Z,14.05
2022-11-14T06:50:50.684Z,15.85
2022-11-14T06:53:36.957Z,13.90
2022-11-14T06:56:21.908Z,14.75
2022-11-14T06:59:06.989Z,14.77
2022-11-14T07:01:51.989Z,14.32
2022-11-14T07:04:37.094Z,14.45
2022-11-14T07:07:22.230Z,14.20
2022-11-14T07:10:08.020Z,14.13
2022-11-14T07:12:52.892Z,14.88
2022-11-14T07:15:37.852Z,14.10
2022-11-14T07:18:22.545Z,14.90
2022-11-14T07:21:07.446Z,13.90
2022-11-14T07:23:52.620Z,14.98
2022-11-14T07:26:37.916Z,14.73
2022-11-14T07:29:22.902Z,15.45
2022-11-14T07:32:07.663Z,13.90
2022-11-14T07:34:52.625Z,13.02
2022-11-14T07:37:38.791Z,13.70
2022-11-14T07:40:23.949Z,11.55
2022-11-14T07:43:08.708Z,12.98
2022-11-14T07:45:53.958Z,10.95
2022-11-14T07:48:38.745Z,10.65
2022-11-14T07:51:23.821Z,9.88
2022-11-14T07:54:10.783Z,9.70
2022-11-14T07:56:56.636Z,8.90
2022-11-14T07:59:41.836Z,9.27
2022-11-14T08:02:27.924Z,10.48
2022-11-14T08:05:13.157Z,10.02
2022-11-14T08:07:58.137Z,11.18
2022-11-14T08:10:42.875Z,11.50
2022-11-14T08:13:33.016Z,11.50
2022-11-14T08:16:18.757Z,11.88
2022-11-14T08:19:03.951Z,12.07
2022-11-14T08:21:48.745Z,12.65
2022-11-14T08:24:33.698Z,11.57
2022-11-14T08:27:18.612Z,12.20
2022-11-14T08:30:04.024Z,13.00
2022-11-14T08:32:49.109Z,11.23
2022-11-14T08:35:34.159Z,11.65
2022-11-14T08:38:19.319Z,11.75
2022-11-14T08:41:05.568Z,10.60
2022-11-14T08:43:50.470Z,10.80
2022-11-14T08:46:35.443Z,10.23
2022-11-14T08:49:20.820Z,10.38
2022-11-14T08:52:05.978Z,10.57
2022-11-14T08:54:51.064Z,9.23
2022-11-14T08:57:36.128Z,9.98
2022-11-14T09:00:21.586Z,9.70
2022-11-14T09:03:10.323Z,9.63
2022-11-14T09:05:55.837Z,9.30
2022-11-14T09:08:40.630Z,9.90
2022-11-14T09:11:25.702Z,10.60
2022-11-14T09:14:10.584Z,10.02
2022-11-14T09:16:55.703Z,10.43
2022-11-14T09:19:40.927Z,10.40
2022-11-14T09:22:25.622Z,10.10
2022-11-14T09:25:10.431Z,10.77
2022-11-14T09:27:55.798Z,11.18
2022-11-14T09:30:41.511Z,11.23
2022-11-14T09:33:26.545Z,11.30
2022-11-14T09:36:15.728Z,11.32
2022-11-14T09:39:00.576Z,11.88
2022-11-14T09:42:03.126Z,12.13
2022-11-14T09:44:58.087Z,12.10
2022-11-14T09:47:44.088Z,12.60
2022-11-14T09:50:32.577Z,11.65
2022-11-14T09:53:22.912Z,13.27
2022-11-14T09:56:11.761Z,12.55
2022-11-14T09:58:56.796Z,12.73
2022-11-14T10:01:50.118Z,13.25
2022-11-14T10:04:47.245Z,13.35
2022-11-14T10:07:50.881Z,12.73
2022-11-14T10:10:41.561Z,12.63
2022-11-14T10:13:35.700Z,12.57
2022-11-14T10:16:35.844Z,12.73
2022-11-14T10:19:20.941Z,13.15
2022-11-14T10:22:15.666Z,12.65
2022-11-14T10:25:07.123Z,13.43
2022-11-14T10:28:07.415Z,14.00
2022-11-14T10:31:00.421Z,14.20
2022-11-14T10:36:45.848Z,14.23
2022-11-14T10:39:39.998Z,12.63
2022-11-14T10:42:37.060Z,13.93
2022-11-14T10:45:30.705Z,14.35
2022-11-14T10:48:29.040Z,15.68
2022-11-14T10:51:32.829Z,15.80
2022-11-14T10:54:36.281Z,15.70
2022-11-14T10:57:21.929Z,16.05
2022-11-14T11:00:14.052Z,16.52
2022-11-14T11:02:59.318Z,17.97
2022-11-14T11:05:45.464Z,18.40
2022-11-14T11:08:49.560Z,18.58
2022-11-14T11:11:34.752Z,18.23
2022-11-14T11:14:19.847Z,18.35
2022-11-14T11:17:21.625Z,19.02
2022-11-14T11:20:36.104Z,18.30
2022-11-14T11:23:23.962Z,19.55
2022-11-14T11:26:19.420Z,19.08
2022-11-14T11:29:14.708Z,17.40
2022-11-14T11:31:59.963Z,17.90
2022-11-14T11:34:46.167Z,18.65
2022-11-14T11:37:33.476Z,18.60
2022-11-14T11:40:20.450Z,19.42
2022-11-14T11:46:20.279Z,21.02
2022-11-14T11:49:11.031Z,19.55
2022-11-14T11:51:57.011Z,19.77
2022-11-14T11:54:49.223Z,20.25
2022-11-14T11:57:43.825Z,19.80
2022-11-14T12:00:29.168Z,19.35
2022-11-14T12:03:20.190Z,20.88
2022-11-14T12:06:24.623Z,19.33
2022-11-14T12:09:42.557Z,20.63
2022-11-14T12:12:45.244Z,20.48
2022-11-14T12:15:48.759Z,20.55
2022-11-14T12:18:52.304Z,20.98
2022-11-14T12:21:54.239Z,20.83
2022-11-14T12:24:45.433Z,21.70
2022-11-14T12:27:30.361Z,19.45
2022-11-14T12:30:21.656Z,19.77
2022-11-14T12:33:09.262Z,20.13
2022-11-14T12:35:56.438Z,19.05
2022-11-14T12:38:47.059Z,20.83
2022-11-14T12:41:33.806Z,19.42
2022-11-14T12:44:30.954Z,20.10
2022-11-14T12:47:20.345Z,19.80
2022-11-14T12:50:06.319Z,18.73
2022-11-14T12:52:52.786Z,19.85
2022-11-14T12:55:43.646Z,20.42
2022-11-14T12:58:46.911Z,18.88
2022-11-14T13:01:42.490Z,20.40
2022-11-14T13:04:42.422Z,21.13
2022-11-14T13:07:32.795Z,20.25
2022-11-14T13:10:29.684Z,18.67
2022-11-14T13:13:34.236Z,19.17
2022-11-14T13:16:42.960Z,19.10
2022-11-14T13:19:46.730Z,18.67
2022-11-14T13:22:39.301Z,19.38
2022-11-14T13:25:24.712Z,21.40
2022-11-14T13:28:35.995Z,20.75
2022-11-14T13:31:35.935Z,20.52
2022-11-14T13:34:39.296Z,20.50
2022-11-14T13:37:43.938Z,19.42
2022-11-14T13:40:38.303Z,17.90
2022-11-14T13:43:29.715Z,18.23
2022-11-14T13:46:39.136Z,19.85
2022-11-14T13:49:48.409Z,20.02
2022-11-14T13:52:34.350Z,19.25
2022-11-14T13:55:21.493Z,18.85
2022-11-14T13:58:21.427Z,20.77
2022-11-14T14:01:06.407Z,20.00
2022-11-14T14:03:57.335Z,17.50
2022-11-14T14:06:57.351Z,20.10
2022-11-14T14:09:42.146Z,20.90
2022-11-14T14:12:37.549Z,18.85
2022-11-14T14:15:26.525Z,18.10
2022-11-14T14:18:20.037Z,18.77
2022-11-14T14:21:27.193Z,19.42
2022-11-14T14:24:28.661Z,19.33
2022-11-14T14:27:26.008Z,18.77
2022-11-14T14:30:12.296Z,18.00
2022-11-14T14:33:03.091Z,20.02
2022-11-14T14:35:51.733Z,21.00
2022-11-14T14:38:38.017Z,20.75
2022-11-14T14:41:23.503Z,21.60
2022-11-14T14:44:34.723Z,21.45
2022-11-14T14:47:34.694Z,20.20
2022-11-14T14:50:23.576Z,21.20
2022-11-14T14:53:19.199Z,22.80
2022-11-14T14:56:05.716Z,19.50
2022-11-14T14:58:50.671Z,22.30
2022-11-14T15:01:35.943Z,21.63
2022-11-14T15:04:21.910Z,22.13
2022-11-14T15:07:17.334Z,21.25
2022-11-14T15:10:02.998Z,21.65
2022-11-14T15:12:48.304Z,21.23
2022-11-14T15:15:33.978Z,22.02
2022-11-14T15:18:23.009Z,19.63
2022-11-14T15:21:09.375Z,19.60
2022-11-14T15:23:58.216Z,20.00
2022-11-14T15:26:44.992Z,19.60
2022-11-14T15:29:32.109Z,18.10
2022-11-14T15:32:21.369Z,18.70
2022-11-14T15:35:28.969Z,18.52
2022-11-14T15:38:43.543Z,19.83
2022-11-14T15:41:20.626Z,17.42
2022-11-14T15:44:05.929Z,17.30
2022-11-14T15:46:51.059Z,17.17
2022-11-14T15:49:36.312Z,17.27
2022-11-14T15:52:24.475Z,17.65
2022-11-14T15:55:12.496Z,17.42
2022-11-14T15:58:21.406Z,16.88
2022-11-14T16:01:02.856Z,18.25
2022-11-14T16:03:48.448Z,16.50
2022-11-14T16:06:33.449Z,17.63
2022-11-14T16:09:19.173Z,17.95
2022-11-14T16:12:04.232Z,20.92
2022-11-14T16:14:49.387Z,20.23
2022-11-14T16:17:35.792Z,19.55
2022-11-14T16:20:22.296Z,16.48
2022-11-14T16:23:07.316Z,17.20
2022-11-14T16:25:52.136Z,18.63
2022-11-14T16:28:37.165Z,16.85
2022-11-14T16:31:22.577Z,16.60
2022-11-14T16:34:07.845Z,17.52
2022-11-14T16:37:00.156Z,17.38
2022-11-14T16:39:45.236Z,18.58
2022-11-14T16:42:30.146Z,17.33
2022-11-14T16:45:20.115Z,17.35
2022-11-14T16:48:05.507Z,19.20
2022-11-14T16:50:54.176Z,23.42
2022-11-14T16:53:41.427Z,23.15
2022-11-14T16:56:26.718Z,17.25
2022-11-14T16:59:11.704Z,16.63
2022-11-14T17:01:56.863Z,15.38
2022-11-14T17:04:42.399Z,16.60
2022-11-14T17:07:30.478Z,18.27
2022-11-14T17:10:15.431Z,15.75
2022-11-14T17:13:00.504Z,16.45
2022-11-14T17:15:46.144Z,15.90
2022-11-14T17:18:35.587Z,17.02
2022-11-14T17:21:23.851Z,17.50
2022-11-14T17:24:08.802Z,16.70
2022-11-14T17:26:53.831Z,17.10
2022-11-14T17:29:38.850Z,17.00
2022-11-14T17:32:23.877Z,17.05
2022-11-14T17:35:08.975Z,18.17
2022-11-14T17:37:56.252Z,16.35
2022-11-14T17:40:45.148Z,16.08
2022-11-14T17:43:34.441Z,16.13
2022-11-14T17:46:23.536Z,14.75
2022-11-14T17:49:08.593Z,15.02
2022-11-14T17:51:53.742Z,15.95
2022-11-14T17:54:38.644Z,16.45
2022-11-14T17:57:23.667Z,16.77
2022-11-14T18:00:09.211Z,16.02
2022-11-14T18:02:53.965Z,16.13
2022-11-14T18:05:38.905Z,15.38
2022-11-14T18:08:25.762Z,17.33
2022-11-14T18:11:11.757Z,17.08
2022-11-14T18:13:57.092Z,17.73
2022-11-14T18:17:10.402Z,16.92
2022-11-14T18:19:46.713Z,16.98
2022-11-14T18:22:31.932Z,17.77
2022-11-14T18:25:17.076Z,16.73
2022-11-14T18:28:02.279Z,15.43
2022-11-14T18:30:55.516Z,21.90
2022-11-14T18:33:41.525Z,16.38
2022-11-14T18:36:26.456Z,15.13
2022-11-14T18:39:11.475Z,16.33
2022-11-14T18:41:57.519Z,18.52
2022-11-14T18:44:42.349Z,18.92
2022-11-14T18:47:28.640Z,22.88
2022-11-14T18:50:13.839Z,23.92
2022-11-14T18:52:58.960Z,22.30
2022-11-14T18:55:43.652Z,23.52
2022-11-14T18:58:28.895Z,26.20
2022-11-14T19:01:24.035Z,19.35
2022-11-14T19:04:09.817Z,23.55
2022-11-14T19:06:54.652Z,22.20
2022-11-14T19:09:39.960Z,23.83
2022-11-14T19:12:25.485Z,19.80
2022-11-14T19:15:11.179Z,18.77
2022-11-14T19:17:56.219Z,18.88
2022-11-14T19:20:41.106Z,18.60
2022-11-14T19:23:26.234Z,18.73
2022-11-14T19:26:11.716Z,17.60
2022-11-14T19:28:59.812Z,21.00
2022-11-14T19:31:54.914Z,16.83
2022-11-14T19:34:41.456Z,18.50
2022-11-14T19:37:33.544Z,18.08
2022-11-14T19:40:24.681Z,16.40
2022-11-14T19:43:15.546Z,18.00
2022-11-14T19:46:14.310Z,20.13
2022-11-14T19:49:00.364Z,22.67
2022-11-14T19:51:45.512Z,23.75
2022-11-14T19:54:30.423Z,19.65
2022-11-14T19:57:15.384Z,20.73
2022-11-14T20:00:00.260Z,19.55
2022-11-14T20:02:45.733Z,17.33
2022-11-14T20:05:31.861Z,21.40
2022-11-14T20:08:17.085Z,19.05
2022-11-14T20:11:02.687Z,17.70
2022-11-14T20:13:47.670Z,17.48
2022-11-14T20:16:33.809Z,16.85
2022-11-14T20:19:18.674Z,19.20
2022-11-14T20:22:06.338Z,22.73
2022-11-14T20:24:51.094Z,23.90
2022-11-14T20:27:36.378Z,19.30
2022-11-14T20:30:21.762Z,18.67
2022-11-14T20:33:07.316Z,18.15
2022-11-14T20:35:52.010Z,17.58
2022-11-14T20:38:37.260Z,18.48
2022-11-14T20:41:22.380Z,17.95
2022-11-14T20:44:07.368Z,18.42
2022-11-14T20:46:52.448Z,17.10
2022-11-14T20:49:37.284Z,18.15
2022-11-14T20:52:22.099Z,16.58
2022-11-14T20:55:11.615Z,19.50
2022-11-14T20:57:56.759Z,19.45
2022-11-14T21:00:41.912Z,16.08
2022-11-14T21:03:27.529Z,15.85
2022-11-14T21:06:12.776Z,16.60
2022-11-14T21:08:57.671Z,16.13
2022-11-14T21:11:42.704Z,15.75
2022-11-14T21:14:27.985Z,14.35
2022-11-14T21:17:12.936Z,14.07
2022-11-14T21:19:58.145Z,14.75
2022-11-14T21:22:44.368Z,14.68
2022-11-14T21:25:29.590Z,13.10
2022-11-14T21:28:14.339Z,14.82
2022-11-14T21:31:00.691Z,14.68
2022-11-14T21:33:47.365Z,14.32
2022-11-14T21:36:47.922Z,13.10
2022-11-14T21:39:32.994Z,14.38
2022-11-14T21:42:18.877Z,14.32
2022-11-14T21:45:04.108Z,13.55
2022-11-14T21:47:49.179Z,13.70
2022-11-14T21:50:34.248Z,14.23
2022-11-14T21:53:19.397Z,12.90
2022-11-14T21:56:11.883Z,14.30
2022-11-14T21:59:12.617Z,12.68
2022-11-14T22:02:16.329Z,14.18
2022-11-14T22:05:01.640Z,14.32
2022-11-14T22:07:46.771Z,13.95
2022-11-14T22:10:31.529Z,14.13
2022-11-14T22:13:16.871Z,12.90
2022-11-14T22:16:05.778Z,13.02
2022-11-14T22:18:54.016Z,14.52
2022-11-14T22:21:39.151Z,14.10
2022-11-14T22:24:24.089Z,15.70
2022-11-14T22:27:09.206Z,14.90
2022-11-14T22:29:54.277Z,15.52
2022-11-14T22:32:39.472Z,15.88
2022-11-14T22:35:24.309Z,14.82
2022-11-14T22:38:09.184Z,14.80
2022-11-14T22:40:55.847Z,15.90
2022-11-14T22:43:40.742Z,16.05
2022-11-14T22:46:27.039Z,15.75
2022-11-14T22:49:11.945Z,17.00
2022-11-14T22:51:57.077Z,17.35
2022-11-14T22:54:42.205Z,16.15
2022-11-14T22:57:26.924Z,14.80
2022-11-14T23:00:12.357Z,16.17
2022-11-14T23:02:57.389Z,15.73
2022-11-14T23:05:42.328Z,17.30
2022-11-14T23:08:28.590Z,15.82
2022-11-14T23:11:15.126Z,17.17
2022-11-14T23:14:00.599Z,16.52
2022-11-14T23:16:45.476Z,17.15
2022-11-14T23:19:30.227Z,15.57
2022-11-14T23:22:15.527Z,16.25
2022-11-14T23:25:00.572Z,15.35
2022-11-14T23:27:45.965Z,15.52
2022-11-14T23:30:30.757Z,16.88
2022-11-14T23:33:15.981Z,18.00
2022-11-14T23:36:01.013Z,15.35
2022-11-14T23:38:45.998Z,16.55
2022-11-14T23:41:30.745Z,17.25
2022-11-14T23:44:15.735Z,15.65
2022-11-14T23:47:01.040Z,16.20
2022-11-14T23:49:46.093Z,15.30
2022-11-14T23:52:30.856Z,16.20
2022-11-14T23:55:15.949Z,15.57
2022-11-14T23:58:01.013Z,15.45
